• Join FlightAware (Why Join?)
  • Login
  • US Flag 
04:05PM EST


 

Airport Tracker/Info


-or-


 

Live Flight TrackerFlight Track Log ✈ SWA3497 ✈ 29-Apr-2013 ✈ KIAD - KMDW

Flight Track Log - Related Links

Times and Time Zones

All times are in EDT time to prevent confusion due to time zone crossing. See the SWA3497 flight status page for this flight to view local times or setup timezone preferences in your user account.

Time Position Orientation Groundspeed Altitude Reporting Facility
EDT Latitude Longitude Course Direction KTS MPH feet Rate Location/Type
09:52AM 38.9333 -77.5333 288° West 204 235 2,700  Level Potomac TRACON
09:54AM 38.9250 -77.6517 265° West 234 269 7,800 3,240 Climbing Washington Center
09:55AM 38.9314 -77.7639 274° West 282 325 11,100 3,060 Climbing Washington Center
09:56AM 38.9394 -77.8867 275° West 328 377 13,900 2,820 Climbing Washington Center
09:57AM 38.9458 -77.9883 275° West 349 402 16,800 3,120 Climbing Washington Center
09:58AM 38.9304 -78.1548 288° West  Level FlightAware Approximate
09:58AM 38.9550 -78.1489 274° West 367 422 20,300  Level Washington Center
09:59AM 38.9631 -78.2558 276° West 379 436 22,700 2,700 Climbing Washington Center
10:00AM 38.9678 -78.4217 272° West 384 442 25,700 2,520 Climbing Washington Center
10:01AM 38.9711 -78.5339 272° West 390 449 27,900 1,860 Climbing Washington Center
10:02AM 38.9775 -78.7050 273° West 395 455 29,500 1,680 Climbing Washington Center
10:03AM 38.9797 -78.8547 271° West 406 467 31,300 1,260 Climbing Washington Center
10:04AM 38.9839 -79.0017 272° West 417 480 32,000 300 Climbing Washington Center
10:05AM 38.9878 -79.1542 272° West 422 486 32,000  Level Washington Center
10:06AM 38.9917 -79.2986 272° West 417 480 32,000  Level Washington Center
10:07AM 38.9956 -79.4458 272° West 417 480 32,000  Level Washington Center
10:08AM 38.9989 -79.6008 272° West 428 493 32,000 480 Level Washington Center
10:09AM 39.0006 -79.7344 271° West 436 502 33,000 960 Climbing Washington Center
10:10AM 39.0036 -79.8817 272° West 426 490 34,000 900 Climbing Washington Center
10:11AM 39.0044 -80.0286 270° West 420 483 34,900 1,200 Climbing Washington Center
10:12AM 39.0053 -80.1836 270° West 414 476 36,500 1,380 Climbing Indianapolis Center
10:13AM 39.0086 -80.3322 272° West 416 479 37,800 720 Climbing Indianapolis Center
10:14AM 39.0492 -80.4692 291° West 416 479 38,000 60 Climbing Indianapolis Center
10:15AM 39.1047 -80.6019 298° West 421 484 38,000 60 Level Indianapolis Center
10:16AM 39.1725 -80.7578 299° West 417 480 38,200 540 Climbing Indianapolis Center
10:17AM 39.2294 -80.8872 300° West 417 480 39,200 840 Climbing Indianapolis Center
10:18AM 39.2869 -81.0178 300° West 419 482 40,000 360 Climbing Indianapolis Center
10:19AM 39.3436 -81.1486 299° West 419 482 40,000  Level Indianapolis Center
10:20AM 39.4003 -81.2797 299° West 419 482 40,000  Level Indianapolis Center
10:21AM 39.4564 -81.4119 299° West 422 486 40,000  Level Indianapolis Center
10:22AM 39.5236 -81.5681 299° West 417 480 40,000  Level Indianapolis Center
10:23AM 39.5800 -81.7000 299° West 419 482 40,000  Level Indianapolis Center
10:24AM 39.6353 -81.8311 299° West 416 479 40,000  Level Indianapolis Center
10:25AM 39.6903 -81.9631 298° West 416 479 40,000  Level Indianapolis Center
10:26AM 39.7511 -82.1089 299° West 417 480 40,000  Level Indianapolis Center
10:28AM 39.8069 -82.2400 299° West 413 475 40,000  Level Indianapolis Center
10:29AM 39.8622 -82.3719 299° West 413 475 40,000  Level Indianapolis Center
10:30AM 39.9169 -82.5044 298° West 414 476 40,000  Level Indianapolis Center
10:31AM 39.9722 -82.6375 298° West 416 479 40,000  Level Indianapolis Center
10:32AM 40.0358 -82.7928 298° West 415 478 40,000  Level Indianapolis Center
10:33AM 40.0911 -82.9269 298° West 418 481 40,000  Level Indianapolis Center
10:34AM 40.1456 -83.0614 298° West 417 480 40,000  Level Indianapolis Center
10:35AM 40.2000 -83.1972 298° West 419 482 40,000  Level Indianapolis Center
10:36AM 40.2544 -83.3322 298° West 420 483 40,000 -420 Level Indianapolis Center
10:37AM 40.3083 -83.4661 298° West 417 480 39,200 -960 Descending Indianapolis Center
10:38AM 40.3697 -83.6192 298° West 407 468 38,100 -1,020 Descending Indianapolis Center
10:39AM 40.4233 -83.7544 298° West 414 476 37,200 -960 Descending Indianapolis Center
10:40AM 40.4769 -83.8886 298° West 413 475 36,200 -960 Descending Indianapolis Center
10:41AM 40.5300 -84.0228 298° West 411 473 35,300 -1,020 Descending Indianapolis Center
10:42AM 40.5833 -84.1581 297° West 414 476 34,200 -1,020 Descending Indianapolis Center
10:43AM 40.6356 -84.2917 297° West 409 471 33,200 -1,020 Descending Indianapolis Center
10:44AM 40.6875 -84.4247 297° West 406 467 32,100 -1,020 Descending Indianapolis Center
10:44AM 40.7017 -84.4625 296° West 403 464 31,900 -1,020 Descending Chicago Center
10:45AM 40.7514 -84.5906 297° West 395 455 30,800 -960 Descending Chicago Center
10:46AM 40.8000 -84.7167 297° West 388 447 30,000 -420 Descending Chicago Center
10:47AM 40.8733 -84.8519 306° West 381 438 30,000  Level Chicago Center
10:48AM 40.9369 -84.9647 307° West 382 440 30,000  Level Chicago Center
10:49AM 41.0014 -85.0783 307° West 384 442 30,000  Level Chicago Center
10:51AM 41.0661 -85.1953 306° West 390 449 30,000 -600 Level Chicago Center
10:52AM 41.1286 -85.3083 306° West 384 442 28,800 -1,440 Descending Chicago Center
10:53AM 41.1878 -85.4156 306° West 364 419 27,100 -1,800 Descending Chicago Center
10:54AM 41.2458 -85.5206 306° West 354 407 25,200 -1,800 Descending Chicago Center
10:55AM 41.3036 -85.6242 307° West 347 399 23,400 -1,980 Descending Chicago Center
10:56AM 41.3708 -85.7469 306° West 340 391 21,200 -1,980 Descending Chicago Center
10:57AM 41.4264 -85.8494 306° West 339 390 19,400 -1,740 Descending Chicago Center
10:58AM 41.4808 -85.9486 306° West 331 381 17,700 -1,740 Descending Chicago Center
10:59AM 41.5239 -86.0511 299° West 324 373 15,900 -1,680 Descending Chicago Center
11:00AM 41.5239 -86.1650 270° West 310 357 14,300 -1,500 Descending Chicago Center
11:01AM 41.5236 -86.2922 270° West 343 395 12,800 -1,620 Descending Chicago Center
11:02AM 41.5222 -86.4247 269° West 358 412 11,000 -1,380 Descending Chicago Center
11:03AM 41.5208 -86.5819 269° West 353 406 10,000 -540 Descending Chicago Center
11:04AM 41.5206 -86.7169 270° West 347 399 10,000  Level Chicago Center
11:05AM 41.5200 -86.8350 270° West 325 374 10,000 -420 Level Chicago Center
11:06AM 41.5172 -86.9364 268° West 280 322 9,200 -1,140 Descending Chicago Center
11:07AM 41.5167 -87.0389 270° West 279 321 7,700 -1,500 Descending Chicago Center
11:08AM 41.5153 -87.1450 269° West 288 331 6,200 -1,380 Descending Chicago Center
11:08AM 41.5167 -87.1833 273° West 275 316 6,000 -180 Descending Chicago TRACON
11:09AM 41.5167 -87.2833 270° West 263 303 6,000  Level Chicago TRACON
11:10AM 41.5167 -87.3833 270° West 265 305 6,000  Level Chicago TRACON
11:11AM 41.5578 -87.4364 316° Northwest 258 297 6,000 -60 Level Chicago Center
11:12AM 41.6056 -87.5003 315° West 254 292 5,900 -480 Descending Chicago Center
11:13AM 41.6428 -87.5531 313° West 226 260 5,100 -840 Descending Chicago Center
11:14AM 41.6764 -87.6014 313° West 200 230 4,200 -1,260 Descending Chicago Center
11:15AM 41.7167 -87.6500 318° Northwest 179 206 2,600 -1,200 Descending Chicago TRACON
11:16AM 41.7500 -87.7000 312° West 186 214 1,800 -540 Descending Chicago TRACON
11:17AM 41.8000 -87.6833 14° North 169 194 1,600 -360 Descending Chicago TRACON
11:18AM 41.8167 -87.7167 304° West 134 154 1,200 -420 Descending Chicago TRACON